Crew | Aerofun Virtual



 METAR AND TAF INFORMATION
METAR FOR LESA
ADDS - METARS form results

(1042 UTC 20 April 2019)
Data provider http://aviationweather.gov/metar/data/
 
METAR text: LESA 201030Z 06016KT 010V080 CAVOK 17/04 Q1019
Conditions at: LESA (SALAMANCA (CIV/M, ES) observed 1030 UTC 20 April 2019
Temperature: 17.0°C (63°F)
Dewpoint: 4.0°C (39°F) [RH = 42%]
Pressure (altimeter): 30.09 inches Hg (1019.0 mb)
Winds: from the ENE (60 degrees) at 18 MPH (16 knots; 8.2 m/s)
Visibility: 6 or more miles (10+ km)
Ceiling: ceiling and visibility are OK
Clouds: unknown
Weather: no significant weather observed at this time

METAR text: LESA 201000Z 07015KT 040V110 CAVOK 17/04 Q1019
Conditions at: LESA (SALAMANCA (CIV/M, ES) observed 1000 UTC 20 April 2019
Temperature: 17.0°C (63°F)
Dewpoint: 4.0°C (39°F) [RH = 42%]
Pressure (altimeter): 30.09 inches Hg (1019.0 mb)
Winds: from the ENE (70 degrees) at 17 MPH (15 knots; 7.7 m/s)
Visibility: 6 or more miles (10+ km)
Ceiling: ceiling and visibility are OK
Clouds: unknown
Weather: no significant weather observed at this time

Forecast for: LESA (SALAMANCA (CIV/M, ES)
Text: TAF LESA 200500Z 2006/2106 07010KT 9999 FEW040 TX22/2015Z TN05/2106Z
Forecast period: 0600 UTC 20 April 2019 to 0600 UTC 21 April 2019
Forecast type: FROM: standard forecast or significant change
Winds: from the ENE (70 degrees) at 12 MPH (10 knots; 5.1 m/s)
Visibility: 6 or more miles 10+ km)
Ceiling: at least 12,000 feet AGL
Clouds: few clouds at 4000 feet AGL
Weather: no significant weather forecast for this period
Text: TEMPO 2011/2019 07018G30KT
Forecast period: 1100 to 1900 UTC 20 April 2019
Forecast type: TEMPORARY: The following changes expected for less than half the time period
Winds: from the ENE (70 degrees) at 21 MPH (18 knots; 9.3 m/s)
gusting to 34 MPH (30 knots; 15.4 m/s)
Visibility: missing
Ceiling: unknown
Clouds: missing
Weather: no significant weather forecast for this period

 AIRPORT MAP

 RUNWAY INFORMATION
Runway 03 Runway length 8202 ft Runway width 197 ft
Runway elevation 2595 ft Runway displaced threshold 0 ft Runway heading 28
Runway 21 Runway length 8202 ft Runway width 197 ft
Runway elevation 2586 ft Runway displaced threshold 0 ft Runway heading 208
Runway 08 Runway length 6594 ft Runway width 400 ft
Runway elevation 2587 ft Runway displaced threshold 0 ft Runway heading 74
Runway 26 Runway length 6594 ft Runway width 400 ft
Runway elevation 2588 ft Runway displaced threshold 0 ft Runway heading 254

 AIRPORT FREQUENCIES
Type APP Name APP Frequency 124.4 MHZ
Type GND Name GND Frequency 121.85 MHZ
Type TWR Name TWR Frequency 139.3 MHZ

 AIRPORT NEAR NAVIGATION AIDS
Type VOR-DME Name Salamanca Frequency 112200 KHZ
Type NDB Name Salamanca Frequency 399 KHZ
Type NDB Name Salamanca Frequency 423 KHZ
Type TACAN Name Salamanca Frequency 113300 KHZ